createdAt,value
2017-11-25T00:02:01.035Z,52.70
2017-11-25T00:04:29.673Z,52.70
2017-11-25T00:06:57.970Z,52.70
2017-11-25T00:09:26.203Z,52.70
2017-11-25T00:11:54.442Z,52.70
2017-11-25T00:14:23.098Z,52.70
2017-11-25T00:16:51.454Z,52.70
2017-11-25T00:19:19.677Z,52.70
2017-11-25T00:21:48.334Z,52.60
2017-11-25T00:24:16.569Z,52.60
2017-11-25T00:26:44.796Z,52.60
2017-11-25T00:29:13.057Z,52.60
2017-11-25T00:31:41.287Z,52.60
2017-11-25T00:34:09.529Z,52.60
2017-11-25T00:36:37.786Z,52.60
2017-11-25T00:39:06.042Z,52.60
2017-11-25T00:41:34.275Z,52.60
2017-11-25T00:44:02.523Z,52.60
2017-11-25T00:46:30.764Z,52.60
2017-11-25T00:48:59.045Z,52.60
2017-11-25T00:51:27.290Z,52.60
2017-11-25T00:53:55.526Z,52.60
2017-11-25T00:56:23.783Z,52.60
2017-11-25T00:58:52.009Z,52.60
2017-11-25T01:01:20.281Z,52.60
2017-11-25T01:03:48.909Z,52.60
2017-11-25T01:06:17.134Z,52.60
2017-11-25T01:08:45.777Z,52.60
2017-11-25T01:11:14.005Z,52.60
2017-11-25T01:13:42.538Z,52.60
2017-11-25T01:16:10.761Z,52.60
2017-11-25T01:18:38.993Z,52.60
2017-11-25T01:21:07.233Z,52.60
2017-11-25T01:23:35.847Z,52.60
2017-11-25T01:26:04.078Z,52.60
2017-11-25T01:28:32.319Z,52.60
2017-11-25T01:31:00.575Z,52.40
2017-11-25T01:33:28.829Z,52.60
2017-11-25T01:35:57.049Z,52.60
2017-11-25T01:38:25.688Z,52.60
2017-11-25T01:40:53.934Z,52.60
2017-11-25T01:43:22.170Z,52.60
2017-11-25T01:45:50.414Z,52.60
2017-11-25T01:48:18.652Z,52.60
2017-11-25T01:50:46.897Z,52.60
2017-11-25T01:53:15.146Z,52.60
2017-11-25T01:55:43.426Z,52.60
2017-11-25T01:58:11.919Z,52.60
2017-11-25T02:00:40.148Z,52.60
2017-11-25T02:03:08.390Z,52.60
2017-11-25T02:05:37.036Z,52.60
2017-11-25T02:08:05.269Z,52.60
2017-11-25T02:10:33.511Z,52.60
2017-11-25T02:13:01.754Z,52.60
2017-11-25T02:15:29.985Z,52.60
2017-11-25T02:17:58.640Z,52.60
2017-11-25T02:20:26.874Z,52.60
2017-11-25T02:22:55.111Z,52.60
2017-11-25T02:25:23.773Z,52.60
2017-11-25T02:27:52.010Z,52.60
2017-11-25T02:30:20.255Z,52.60
2017-11-25T02:32:48.932Z,52.60
2017-11-25T02:35:17.171Z,52.40
2017-11-25T02:37:45.406Z,52.40
2017-11-25T02:40:13.657Z,52.40
2017-11-25T02:42:41.883Z,52.60
2017-11-25T02:45:10.184Z,52.60
2017-11-25T02:47:38.467Z,52.40
2017-11-25T02:50:06.709Z,52.40
2017-11-25T02:52:34.939Z,52.40
2017-11-25T02:55:03.634Z,52.40
2017-11-25T02:57:32.687Z,52.40
2017-11-25T03:00:01.074Z,52.40
2017-11-25T03:02:29.323Z,52.40
2017-11-25T03:04:57.553Z,52.40
2017-11-25T03:07:27.496Z,52.40
2017-11-25T03:09:56.340Z,52.40
2017-11-25T03:12:25.169Z,52.40
2017-11-25T03:14:54.361Z,52.40
2017-11-25T03:17:24.014Z,52.40
2017-11-25T03:19:53.093Z,52.40
2017-11-25T03:22:22.556Z,52.40
2017-11-25T03:24:51.988Z,52.40
2017-11-25T03:27:21.599Z,52.40
2017-11-25T03:29:51.322Z,52.40
2017-11-25T03:32:21.278Z,52.40
2017-11-25T03:34:50.669Z,52.40
2017-11-25T03:37:19.804Z,52.40
2017-11-25T03:39:49.373Z,52.40
2017-11-25T03:42:18.814Z,52.40
2017-11-25T03:44:47.906Z,52.40
2017-11-25T03:47:17.431Z,52.40
2017-11-25T03:49:46.644Z,52.40
2017-11-25T03:52:15.707Z,52.40
2017-11-25T03:54:45.164Z,52.40
2017-11-25T03:57:13.927Z,52.40
2017-11-25T03:59:43.109Z,52.40
2017-11-25T04:02:11.949Z,52.40
2017-11-25T04:04:40.916Z,52.40
2017-11-25T04:07:10.026Z,52.40
2017-11-25T04:09:39.780Z,52.40
2017-11-25T04:12:08.955Z,52.40
2017-11-25T04:14:38.060Z,52.40
2017-11-25T04:17:07.592Z,52.40
2017-11-25T04:19:36.307Z,52.40
2017-11-25T04:22:05.339Z,52.40
2017-11-25T04:24:34.274Z,52.40
2017-11-25T04:27:03.513Z,52.40
2017-11-25T04:29:32.181Z,52.40
2017-11-25T04:32:01.589Z,52.30
2017-11-25T04:34:30.240Z,52.40
2017-11-25T04:36:59.252Z,52.40
2017-11-25T04:39:28.787Z,52.40
2017-11-25T04:41:57.662Z,52.40
2017-11-25T04:44:26.513Z,52.40
2017-11-25T04:46:55.321Z,52.40
2017-11-25T04:49:24.811Z,52.40
2017-11-25T04:51:53.483Z,52.40
2017-11-25T04:54:23.075Z,52.30
2017-11-25T04:56:52.226Z,52.30
2017-11-25T04:59:21.736Z,52.30
2017-11-25T05:01:51.528Z,52.30
2017-11-25T05:04:20.826Z,52.30
2017-11-25T05:06:49.669Z,52.30
2017-11-25T05:09:18.820Z,52.30
2017-11-25T05:11:48.072Z,52.30
2017-11-25T05:14:17.340Z,52.30
2017-11-25T05:16:46.330Z,52.30
2017-11-25T05:19:15.210Z,52.40
2017-11-25T05:21:44.354Z,52.30
2017-11-25T05:24:13.300Z,52.30
2017-11-25T05:26:42.719Z,52.30
2017-11-25T05:29:11.997Z,52.30
2017-11-25T05:31:41.166Z,52.40
2017-11-25T05:34:10.119Z,52.40
2017-11-25T05:36:39.228Z,52.40
2017-11-25T05:39:08.291Z,52.40
2017-11-25T05:41:37.978Z,52.40
2017-11-25T05:44:07.515Z,52.40
2017-11-25T05:46:37.223Z,52.40
2017-11-25T05:49:06.663Z,52.40
2017-11-25T05:51:35.493Z,52.40
2017-11-25T05:54:04.102Z,52.40
2017-11-25T05:56:33.240Z,52.40
2017-11-25T05:59:02.465Z,52.40
2017-11-25T06:01:32.486Z,52.40
2017-11-25T06:04:01.001Z,52.40
2017-11-25T06:06:29.984Z,52.60
2017-11-25T06:08:58.944Z,52.60
2017-11-25T06:11:28.272Z,52.60
2017-11-25T06:13:57.610Z,52.60
2017-11-25T06:16:26.827Z,52.60
2017-11-25T06:18:55.766Z,52.60
2017-11-25T06:21:24.527Z,52.60
2017-11-25T06:23:53.547Z,52.70
2017-11-25T06:26:22.869Z,52.70
2017-11-25T06:28:51.338Z,52.60
2017-11-25T06:31:19.970Z,52.70
2017-11-25T06:33:48.394Z,52.70
2017-11-25T06:36:16.969Z,52.70
2017-11-25T06:38:45.572Z,52.70
2017-11-25T06:41:13.991Z,52.70
2017-11-25T06:43:42.227Z,52.70
2017-11-25T06:46:10.542Z,52.70
2017-11-25T06:48:38.782Z,52.70
2017-11-25T06:51:07.406Z,55.70
2017-11-25T06:53:35.675Z,55.70
2017-11-25T06:56:03.933Z,54.50
2017-11-25T06:58:33.173Z,53.90
2017-11-25T07:01:01.763Z,53.90
2017-11-25T07:03:30.486Z,53.80
2017-11-25T07:05:59.130Z,53.60
2017-11-25T07:08:27.368Z,53.60
2017-11-25T07:10:55.630Z,53.50
2017-11-25T07:13:23.924Z,53.50
2017-11-25T07:15:52.186Z,53.50
2017-11-25T07:18:20.466Z,53.50
2017-11-25T07:20:49.094Z,53.30
2017-11-25T07:23:17.364Z,53.30
2017-11-25T07:25:45.735Z,53.30
2017-11-25T07:28:13.997Z,53.30
2017-11-25T07:30:42.472Z,53.30
2017-11-25T07:33:10.735Z,53.20
2017-11-25T07:35:38.969Z,53.30
2017-11-25T07:38:07.233Z,53.20
2017-11-25T07:40:35.464Z,53.20
2017-11-25T07:43:03.733Z,53.20
2017-11-25T07:45:32.366Z,53.20
2017-11-25T07:48:00.607Z,53.20
2017-11-25T07:50:28.943Z,53.20
2017-11-25T07:52:57.178Z,53.20
2017-11-25T07:55:25.421Z,53.20
2017-11-25T07:57:54.371Z,53.00
2017-11-25T08:00:23.329Z,53.00
2017-11-25T08:02:51.656Z,53.20
2017-11-25T08:05:20.327Z,53.00
2017-11-25T08:07:48.557Z,53.20
2017-11-25T08:10:16.797Z,53.20
2017-11-25T08:12:45.465Z,53.20
2017-11-25T08:15:13.717Z,53.20
2017-11-25T08:17:41.966Z,53.20
2017-11-25T08:20:10.283Z,53.00
2017-11-25T08:22:38.558Z,53.00
2017-11-25T08:25:06.828Z,53.20
2017-11-25T08:27:35.061Z,53.00
2017-11-25T08:30:03.320Z,53.20
2017-11-25T08:32:31.668Z,53.00
2017-11-25T08:34:59.913Z,53.20
2017-11-25T08:37:28.141Z,53.20
2017-11-25T08:39:56.380Z,53.20
2017-11-25T08:42:24.627Z,53.20
2017-11-25T08:44:52.864Z,55.40
2017-11-25T08:47:21.112Z,54.20
2017-11-25T08:49:49.605Z,54.20
2017-11-25T08:52:17.868Z,54.10
2017-11-25T08:54:46.090Z,53.90
2017-11-25T08:57:14.733Z,54.10
2017-11-25T08:59:42.976Z,54.10
2017-11-25T09:02:11.247Z,53.90
2017-11-25T09:04:39.561Z,53.90
2017-11-25T09:07:07.805Z,53.90
2017-11-25T09:09:36.132Z,53.80
2017-11-25T09:12:04.359Z,53.60
2017-11-25T09:14:32.589Z,53.60
2017-11-25T09:17:00.845Z,53.60
2017-11-25T09:19:29.164Z,53.60
2017-11-25T09:21:57.798Z,61.20
2017-11-25T09:24:26.050Z,61.20
2017-11-25T09:26:54.301Z,59.80
2017-11-25T09:29:22.558Z,58.80
2017-11-25T09:31:51.427Z,56.00
2017-11-25T09:34:19.775Z,56.00
2017-11-25T09:36:48.046Z,54.80
2017-11-25T09:39:16.277Z,58.00
2017-11-25T09:41:44.905Z,54.80
2017-11-25T09:44:13.184Z,54.90
2017-11-25T09:46:41.510Z,55.50
2017-11-25T09:49:09.740Z,57.40
2017-11-25T09:51:38.066Z,59.20
2017-11-25T09:54:06.557Z,57.60
2017-11-25T09:56:34.795Z,57.30
2017-11-25T09:59:03.039Z,55.10
2017-11-25T10:01:31.281Z,50.20
2017-11-25T10:04:00.517Z,50.70
2017-11-25T10:06:28.737Z,50.80
2017-11-25T10:08:57.025Z,52.90
2017-11-25T10:11:25.658Z,51.80
2017-11-25T10:13:53.910Z,51.80
2017-11-25T10:16:22.442Z,51.50
2017-11-25T10:18:50.707Z,50.50
2017-11-25T10:21:18.948Z,52.30
2017-11-25T10:23:47.263Z,51.50
2017-11-25T10:26:15.496Z,50.80
2017-11-25T10:28:44.030Z,50.10
2017-11-25T10:31:12.271Z,52.10
2017-11-25T10:33:40.530Z,53.80
2017-11-25T10:36:08.873Z,56.40
2017-11-25T10:38:37.133Z,58.00
2017-11-25T10:41:05.427Z,56.30
2017-11-25T10:43:34.094Z,54.50
2017-11-25T10:46:02.337Z,54.30
2017-11-25T10:48:31.773Z,55.80
2017-11-25T10:51:00.355Z,55.80
2017-11-25T10:53:28.591Z,53.50
2017-11-25T10:55:56.891Z,54.20
2017-11-25T10:58:25.145Z,53.90
2017-11-25T11:00:53.383Z,54.50
2017-11-25T11:03:22.049Z,53.60
2017-11-25T11:05:50.289Z,53.60
2017-11-25T11:08:18.535Z,52.40
2017-11-25T11:10:47.181Z,52.30
2017-11-25T11:13:15.476Z,52.30
2017-11-25T11:15:43.739Z,51.80
2017-11-25T11:18:12.004Z,53.20
2017-11-25T11:20:40.247Z,53.80
2017-11-25T11:23:08.657Z,53.60
2017-11-25T11:25:36.935Z,54.10
2017-11-25T11:28:05.168Z,54.10
2017-11-25T11:30:33.455Z,51.70
2017-11-25T11:33:01.692Z,52.30
2017-11-25T11:35:29.982Z,51.20
2017-11-25T11:37:58.633Z,53.30
2017-11-25T11:40:26.865Z,53.30
2017-11-25T11:42:55.171Z,53.60
2017-11-25T11:45:23.433Z,53.80
2017-11-25T11:47:51.685Z,54.60
2017-11-25T11:50:19.926Z,53.30
2017-11-25T11:52:48.577Z,52.90
2017-11-25T11:55:16.817Z,52.90
2017-11-25T11:57:45.059Z,51.70
2017-11-25T12:00:13.325Z,53.00
2017-11-25T12:02:41.566Z,53.60
2017-11-25T12:05:09.806Z,52.30
2017-11-25T12:07:38.069Z,52.90
2017-11-25T12:10:06.754Z,53.00
2017-11-25T12:12:35.411Z,52.90
2017-11-25T12:15:03.633Z,52.90
2017-11-25T12:17:31.913Z,52.40
2017-11-25T12:20:00.223Z,51.50
2017-11-25T12:22:28.527Z,52.00
2017-11-25T12:24:56.793Z,51.70
2017-11-25T12:27:25.035Z,48.90
2017-11-25T12:29:53.266Z,48.90
2017-11-25T12:32:21.898Z,49.80
2017-11-25T12:34:50.501Z,49.80
2017-11-25T12:37:19.249Z,50.70
2017-11-25T12:39:48.176Z,51.10
2017-11-25T12:42:16.978Z,53.00
2017-11-25T12:44:45.800Z,53.90
2017-11-25T12:47:14.513Z,53.30
2017-11-25T12:49:42.748Z,53.30
2017-11-25T12:52:11.032Z,51.80
2017-11-25T12:54:39.681Z,51.50
2017-11-25T12:57:08.748Z,51.50
2017-11-25T12:59:36.993Z,52.10
2017-11-25T13:02:05.623Z,51.20
2017-11-25T13:04:33.862Z,51.20
2017-11-25T13:07:02.417Z,51.40
2017-11-25T13:09:31.112Z,50.90
2017-11-25T13:11:59.483Z,50.90
2017-11-25T13:14:28.553Z,51.80
2017-11-25T13:16:57.423Z,52.70
2017-11-25T13:19:25.772Z,52.70
2017-11-25T13:21:54.011Z,51.80
2017-11-25T13:24:22.238Z,52.30
2017-11-25T13:26:50.532Z,53.80
2017-11-25T13:29:18.764Z,53.30
2017-11-25T13:31:47.004Z,52.40
2017-11-25T13:34:15.778Z,51.20
2017-11-25T13:36:44.008Z,51.70
2017-11-25T13:39:12.273Z,52.90
2017-11-25T13:41:40.931Z,51.10
2017-11-25T13:44:09.217Z,51.10
2017-11-25T13:46:37.485Z,52.70
2017-11-25T13:49:05.717Z,55.70
2017-11-25T13:51:34.412Z,53.90
2017-11-25T13:54:02.801Z,53.80
2017-11-25T13:56:31.299Z,54.10
2017-11-25T13:58:59.546Z,53.90
2017-11-25T14:01:27.842Z,53.80
2017-11-25T14:03:56.825Z,52.70
2017-11-25T14:06:25.130Z,52.40
2017-11-25T14:08:53.509Z,52.10
2017-11-25T14:11:21.750Z,53.30
2017-11-25T14:13:50.039Z,52.60
2017-11-25T14:16:18.278Z,52.70
2017-11-25T14:18:46.525Z,53.30
2017-11-25T14:21:15.186Z,52.90
2017-11-25T14:23:43.417Z,52.90
2017-11-25T14:26:11.676Z,54.10
2017-11-25T14:28:39.914Z,53.80
2017-11-25T14:31:08.163Z,53.20
2017-11-25T14:33:36.521Z,52.60
2017-11-25T14:36:04.794Z,51.50
2017-11-25T14:38:33.025Z,52.70
2017-11-25T14:41:01.288Z,52.00
2017-11-25T14:43:29.547Z,51.10
2017-11-25T14:45:57.782Z,60.30
2017-11-25T14:48:26.212Z,55.70
2017-11-25T14:50:54.438Z,55.50
2017-11-25T14:53:22.682Z,56.40
2017-11-25T14:55:50.946Z,56.90
2017-11-25T14:58:20.085Z,55.20
2017-11-25T15:00:48.357Z,54.60
2017-11-25T15:03:17.035Z,53.80
2017-11-25T15:05:45.273Z,53.60
2017-11-25T15:08:13.514Z,53.30
2017-11-25T15:10:41.767Z,53.20
2017-11-25T15:13:10.391Z,54.30
2017-11-25T15:15:38.633Z,54.30
2017-11-25T15:18:07.402Z,54.30
2017-11-25T15:20:36.684Z,52.60
2017-11-25T15:23:05.149Z,52.60
2017-11-25T15:25:33.420Z,52.90
2017-11-25T15:28:01.906Z,53.60
2017-11-25T15:30:30.560Z,54.50
2017-11-25T15:32:59.080Z,54.50
2017-11-25T15:35:27.313Z,52.90
2017-11-25T15:37:55.837Z,54.50
2017-11-25T15:40:24.101Z,53.00
2017-11-25T15:42:52.341Z,53.00
2017-11-25T15:45:20.663Z,52.90
2017-11-25T15:47:49.109Z,53.20
2017-11-25T15:50:17.372Z,53.00
2017-11-25T15:52:51.629Z,52.90
2017-11-25T15:55:19.862Z,53.50
2017-11-25T15:57:48.108Z,53.20
2017-11-25T16:00:16.758Z,52.70
2017-11-25T16:02:44.996Z,52.70
2017-11-25T16:05:15.310Z,52.60
2017-11-25T16:07:44.935Z,51.80
2017-11-25T16:10:14.159Z,51.40
2017-11-25T16:12:42.943Z,51.40
2017-11-25T16:15:12.401Z,51.70
2017-11-25T16:17:41.495Z,51.70
2017-11-25T16:20:10.383Z,51.50
2017-11-25T16:22:39.050Z,50.40
2017-11-25T16:25:07.277Z,51.20
2017-11-25T16:27:35.800Z,51.40
2017-11-25T16:30:04.033Z,51.20
2017-11-25T16:32:32.266Z,51.10
2017-11-25T16:35:00.535Z,51.10
2017-11-25T16:37:28.775Z,51.10
2017-11-25T16:39:57.002Z,51.10
2017-11-25T16:42:25.669Z,51.10
2017-11-25T16:44:53.909Z,51.10
2017-11-25T16:47:22.218Z,50.90
2017-11-25T16:49:50.501Z,51.20
2017-11-25T16:52:18.856Z,50.90
2017-11-25T16:54:47.077Z,51.50
2017-11-25T16:57:15.815Z,51.20
2017-11-25T16:59:44.069Z,51.20
2017-11-25T17:02:12.359Z,50.90
2017-11-25T17:04:40.646Z,50.80
2017-11-25T17:07:08.898Z,51.10
2017-11-25T17:09:37.514Z,54.80
2017-11-25T17:12:06.105Z,63.70
2017-11-25T17:14:34.343Z,63.00
2017-11-25T17:17:02.590Z,77.10
2017-11-25T17:19:30.850Z,73.40
2017-11-25T17:21:59.609Z,63.30
2017-11-25T17:24:29.106Z,60.60
2017-11-25T17:26:57.356Z,60.60
2017-11-25T17:29:25.869Z,58.60
2017-11-25T17:31:54.170Z,57.30
2017-11-25T17:34:22.406Z,57.20
2017-11-25T17:36:50.693Z,56.00
2017-11-25T17:39:18.929Z,55.10
2017-11-25T17:41:47.174Z,54.30
2017-11-25T17:44:15.417Z,54.10
2017-11-25T17:46:43.681Z,53.80
2017-11-25T17:49:11.913Z,52.90
2017-11-25T17:51:40.545Z,52.60
2017-11-25T17:54:08.817Z,52.60
2017-11-25T17:56:37.045Z,52.30
2017-11-25T17:59:05.685Z,52.00
2017-11-25T18:01:33.928Z,52.10
2017-11-25T18:04:02.453Z,51.70
2017-11-25T18:06:30.722Z,51.70
2017-11-25T18:08:59.005Z,51.70
2017-11-25T18:11:27.222Z,51.70
2017-11-25T18:13:55.500Z,51.50
2017-11-25T18:16:23.825Z,51.50
2017-11-25T18:18:52.313Z,51.50
2017-11-25T18:21:20.556Z,51.50
2017-11-25T18:23:48.792Z,51.50
2017-11-25T18:26:17.451Z,51.40
2017-11-25T18:28:45.717Z,51.40
2017-11-25T18:31:13.960Z,51.50
2017-11-25T18:33:42.221Z,51.50
2017-11-25T18:36:10.454Z,51.40
2017-11-25T18:38:38.713Z,51.20
2017-11-25T18:41:06.957Z,51.20
2017-11-25T18:43:35.199Z,51.70
2017-11-25T18:46:03.430Z,51.70
2017-11-25T18:48:32.058Z,51.50
2017-11-25T18:51:00.689Z,52.00
2017-11-25T18:53:28.924Z,52.00
2017-11-25T18:55:57.188Z,52.10
2017-11-25T18:58:25.426Z,52.30
2017-11-25T19:00:53.701Z,52.10
2017-11-25T19:03:22.775Z,52.00
2017-11-25T19:05:51.345Z,52.00
2017-11-25T19:08:19.692Z,51.80
2017-11-25T19:10:47.950Z,51.70
2017-11-25T19:13:16.194Z,51.70
2017-11-25T19:15:44.481Z,51.70
2017-11-25T19:18:16.278Z,51.50
2017-11-25T19:20:44.844Z,51.50
2017-11-25T19:23:13.141Z,51.40
2017-11-25T19:25:41.369Z,51.40
2017-11-25T19:28:09.657Z,51.50
2017-11-25T19:30:37.957Z,51.50
2017-11-25T19:33:06.539Z,51.20
2017-11-25T19:35:34.800Z,51.10
2017-11-25T19:38:03.039Z,51.10
2017-11-25T19:40:31.332Z,50.90
2017-11-25T19:42:59.609Z,50.40
2017-11-25T19:45:27.841Z,50.90
2017-11-25T19:47:56.518Z,52.70
2017-11-25T19:50:24.753Z,52.70
2017-11-25T19:52:52.994Z,52.10
2017-11-25T19:55:21.246Z,51.80
2017-11-25T19:57:49.881Z,51.70
2017-11-25T20:00:18.143Z,51.70
2017-11-25T20:02:46.382Z,51.70
2017-11-25T20:05:14.646Z,51.50
2017-11-25T20:07:42.886Z,51.20
2017-11-25T20:10:11.179Z,51.20
2017-11-25T20:12:39.420Z,50.90
2017-11-25T20:15:07.732Z,51.20
2017-11-25T20:17:35.960Z,50.80
2017-11-25T20:20:04.218Z,51.70
2017-11-25T20:22:32.906Z,51.50
2017-11-25T20:25:01.538Z,51.40
2017-11-25T20:27:29.797Z,51.40
2017-11-25T20:29:58.052Z,51.20
2017-11-25T20:32:26.687Z,64.80
2017-11-25T20:34:54.954Z,64.80
2017-11-25T20:37:23.211Z,65.30
2017-11-25T20:39:51.462Z,61.70
2017-11-25T20:42:20.129Z,58.20
2017-11-25T20:44:48.887Z,50.10
2017-11-25T20:47:17.136Z,50.10
2017-11-25T20:49:45.402Z,53.80
2017-11-25T20:52:13.649Z,63.00
2017-11-25T20:54:42.305Z,46.20
2017-11-25T20:57:10.546Z,46.20
2017-11-25T20:59:38.813Z,59.80
2017-11-25T21:02:07.177Z,50.70
2017-11-25T21:04:36.076Z,53.90
2017-11-25T21:07:04.486Z,53.90
2017-11-25T21:09:32.914Z,57.00
2017-11-25T21:12:01.176Z,57.40
2017-11-25T21:14:29.566Z,56.00
2017-11-25T21:16:57.916Z,42.50
2017-11-25T21:19:26.229Z,47.00
2017-11-25T21:21:54.582Z,48.90
2017-11-25T21:24:23.335Z,60.60
2017-11-25T21:26:51.614Z,60.80
2017-11-25T21:29:20.124Z,56.00
2017-11-25T21:31:53.753Z,57.20
2017-11-25T21:34:24.348Z,59.80
2017-11-25T21:36:55.759Z,60.00
2017-11-25T21:39:24.241Z,50.90
2017-11-25T21:41:52.616Z,57.70
2017-11-25T21:44:21.153Z,57.90
2017-11-25T21:46:49.405Z,56.00
2017-11-25T21:49:17.670Z,55.70
2017-11-25T21:51:46.134Z,63.70
2017-11-25T21:54:14.530Z,59.40
2017-11-25T21:56:42.817Z,58.20
2017-11-25T21:59:11.062Z,60.40
2017-11-25T22:01:39.299Z,58.90
2017-11-25T22:04:08.060Z,58.60
2017-11-25T22:06:36.307Z,58.60
2017-11-25T22:09:04.610Z,54.30
2017-11-25T22:11:32.913Z,52.60
2017-11-25T22:14:01.559Z,52.10
2017-11-25T22:16:29.829Z,52.10
2017-11-25T22:18:58.106Z,53.00
2017-11-25T22:21:26.883Z,52.30
2017-11-25T22:23:55.311Z,51.70
2017-11-25T22:26:23.610Z,53.60
2017-11-25T22:28:52.014Z,53.00
2017-11-25T22:31:22.950Z,52.00
2017-11-25T22:33:51.626Z,49.80
2017-11-25T22:36:19.988Z,54.30
2017-11-25T22:38:48.952Z,53.80
2017-11-25T22:41:18.487Z,53.90
2017-11-25T22:43:46.769Z,55.70
2017-11-25T22:46:25.957Z,53.50
2017-11-25T22:48:54.518Z,55.10
2017-11-25T22:51:23.048Z,55.10
2017-11-25T22:53:51.702Z,54.80
2017-11-25T22:56:20.004Z,54.80
2017-11-25T22:58:49.992Z,54.50
2017-11-25T23:01:20.582Z,54.30
2017-11-25T23:03:48.910Z,54.30
2017-11-25T23:06:17.150Z,53.00
2017-11-25T23:08:45.501Z,54.90
2017-11-25T23:11:14.045Z,55.10
2017-11-25T23:13:42.296Z,54.50
2017-11-25T23:16:10.611Z,54.60
2017-11-25T23:18:38.968Z,50.90
2017-11-25T23:21:08.337Z,53.50
2017-11-25T23:23:36.796Z,54.80
2017-11-25T23:26:05.077Z,54.90
2017-11-25T23:28:34.071Z,54.50
2017-11-25T23:31:02.314Z,55.40
2017-11-25T23:33:30.583Z,55.10
2017-11-25T23:35:58.885Z,54.50
2017-11-25T23:38:27.120Z,54.80
2017-11-25T23:40:55.358Z,51.80
2017-11-25T23:43:23.644Z,54.90
2017-11-25T23:45:52.053Z,54.30
2017-11-25T23:48:20.350Z,54.90
2017-11-25T23:50:48.784Z,54.80
2017-11-25T23:53:17.027Z,54.90
2017-11-25T23:55:45.693Z,54.20
2017-11-25T23:58:13.965Z,54.10
